sensor_id;sensor_type;location;lat;lon;timestamp;pressure;altitude;pressure_sealevel;temperature;humidity
63399;BME280;49533;-34.520;150.798;2023-05-20T00:02:19;100493.50;;;16.52;44.56
63399;BME280;49533;-34.520;150.798;2023-05-20T00:04:46;100483.88;;;16.59;44.68
63399;BME280;49533;-34.520;150.798;2023-05-20T00:07:14;100061.25;;;13.91;44.10
63399;BME280;49533;-34.520;150.798;2023-05-20T00:09:41;100451.03;;;16.46;44.16
63399;BME280;49533;-34.520;150.798;2023-05-20T00:12:08;100461.25;;;16.62;44.21
63399;BME280;49533;-34.520;150.798;2023-05-20T00:14:35;100443.91;;;16.58;44.09
63399;BME280;49533;-34.520;150.798;2023-05-20T00:17:02;100446.84;;;16.65;44.01
63399;BME280;49533;-34.520;150.798;2023-05-20T00:19:29;100437.97;;;16.56;43.87
63399;BME280;49533;-34.520;150.798;2023-05-20T00:21:57;100482.53;;;16.93;43.77
63399;BME280;49533;-34.520;150.798;2023-05-20T00:24:24;100475.16;;;16.97;43.64
63399;BME280;49533;-34.520;150.798;2023-05-20T00:26:52;100425.78;;;16.69;43.67
63399;BME280;49533;-34.520;150.798;2023-05-20T00:29:20;100430.34;;;16.77;43.74
63399;BME280;49533;-34.520;150.798;2023-05-20T00:31:48;100472.03;;;17.11;43.73
63399;BME280;49533;-34.520;150.798;2023-05-20T00:34:15;100475.63;;;17.15;43.39
63399;BME280;49533;-34.520;150.798;2023-05-20T00:36:42;100455.19;;;17.12;43.21
63399;BME280;49533;-34.520;150.798;2023-05-20T00:39:09;100431.63;;;16.95;43.25
63399;BME280;49533;-34.520;150.798;2023-05-20T00:41:36;100401.97;;;16.85;43.13
63399;BME280;49533;-34.520;150.798;2023-05-20T00:44:04;100416.13;;;17.03;43.52
63399;BME280;49533;-34.520;150.798;2023-05-20T00:46:31;100370.66;;;16.74;43.23
63399;BME280;49533;-34.520;150.798;2023-05-20T00:48:59;100454.69;;;17.38;43.24
63399;BME280;49533;-34.520;150.798;2023-05-20T00:51:26;100459.47;;;17.42;43.00
63399;BME280;49533;-34.520;150.798;2023-05-20T00:53:54;100329.75;;;16.69;43.30
63399;BME280;49533;-34.520;150.798;2023-05-20T00:56:22;100449.78;;;17.48;43.20
63399;BME280;49533;-34.520;150.798;2023-05-20T00:58:50;100414.44;;;17.30;43.29
63399;BME280;49533;-34.520;150.798;2023-05-20T01:01:18;100440.81;;;17.51;43.11
63399;BME280;49533;-34.520;150.798;2023-05-20T01:03:45;100395.50;;;17.25;43.02
63399;BME280;49533;-34.520;150.798;2023-05-20T01:06:13;100431.53;;;17.55;42.86
63399;BME280;49533;-34.520;150.798;2023-05-20T01:08:41;100409.38;;;17.48;42.88
63399;BME280;49533;-34.520;150.798;2023-05-20T01:11:15;100427.00;;;17.63;42.92
63399;BME280;49533;-34.520;150.798;2023-05-20T01:13:47;100422.75;;;17.66;43.33
63399;BME280;49533;-34.520;150.798;2023-05-20T01:16:18;100408.03;;;17.58;42.98
63399;BME280;49533;-34.520;150.798;2023-05-20T01:18:46;100399.91;;;17.62;42.92
63399;BME280;49533;-34.520;150.798;2023-05-20T01:21:22;100407.31;;;17.77;42.92
63399;BME280;49533;-34.520;150.798;2023-05-20T01:23:50;100373.50;;;17.57;42.77
63399;BME280;49533;-34.520;150.798;2023-05-20T01:26:17;100396.72;;;17.79;42.54
63399;BME280;49533;-34.520;150.798;2023-05-20T01:28:44;100394.47;;;17.81;42.69
63399;BME280;49533;-34.520;150.798;2023-05-20T01:31:17;100376.00;;;17.81;42.69
63399;BME280;49533;-34.520;150.798;2023-05-20T01:33:55;100383.56;;;17.85;42.62
63399;BME280;49533;-34.520;150.798;2023-05-20T01:36:24;100360.69;;;17.80;42.63
63399;BME280;49533;-34.520;150.798;2023-05-20T01:38:53;100340.03;;;17.71;42.55
63399;BME280;49533;-34.520;150.798;2023-05-20T01:41:23;100351.81;;;17.71;42.58
63399;BME280;49533;-34.520;150.798;2023-05-20T01:43:52;100364.88;;;17.94;42.69
63399;BME280;49533;-34.520;150.798;2023-05-20T01:46:19;100292.16;;;17.52;42.73
63399;BME280;49533;-34.520;150.798;2023-05-20T01:48:46;100354.34;;;17.96;42.62
63399;BME280;49533;-34.520;150.798;2023-05-20T01:51:13;100297.44;;;17.61;42.40
63399;BME280;49533;-34.520;150.798;2023-05-20T01:53:41;100339.88;;;17.99;42.20
63399;BME280;49533;-34.520;150.798;2023-05-20T01:56:08;100265.13;;;17.54;41.99
63399;BME280;49533;-34.520;150.798;2023-05-20T01:58:35;100304.03;;;17.76;41.98
63399;BME280;49533;-34.520;150.798;2023-05-20T02:01:02;100293.16;;;17.79;42.17
63399;BME280;49533;-34.520;150.798;2023-05-20T02:03:30;100341.59;;;18.07;42.12
63399;BME280;49533;-34.520;150.798;2023-05-20T02:05:57;100330.59;;;18.07;41.89
63399;BME280;49533;-34.520;150.798;2023-05-20T02:08:24;100307.47;;;17.89;42.06
63399;BME280;49533;-34.520;150.798;2023-05-20T02:10:51;100230.84;;;17.48;42.01
63399;BME280;49533;-34.520;150.798;2023-05-20T02:13:18;100327.50;;;18.09;41.95
63399;BME280;49533;-34.520;150.798;2023-05-20T02:15:45;100296.56;;;17.92;41.83
63399;BME280;49533;-34.520;150.798;2023-05-20T02:18:12;100314.84;;;18.04;41.98
63399;BME280;49533;-34.520;150.798;2023-05-20T02:20:43;100324.47;;;18.14;41.80
63399;BME280;49533;-34.520;150.798;2023-05-20T02:23:10;100297.19;;;17.86;41.80
63399;BME280;49533;-34.520;150.798;2023-05-20T02:25:37;100299.66;;;17.91;41.60
63399;BME280;49533;-34.520;150.798;2023-05-20T02:28:06;100303.94;;;18.08;41.42
63399;BME280;49533;-34.520;150.798;2023-05-20T02:30:37;100283.16;;;17.91;41.35
63399;BME280;49533;-34.520;150.798;2023-05-20T02:33:04;100305.66;;;18.16;41.30
63399;BME280;49533;-34.520;150.798;2023-05-20T02:35:32;100301.28;;;18.15;41.05
63399;BME280;49533;-34.520;150.798;2023-05-20T02:37:59;100247.50;;;17.75;41.12
63399;BME280;49533;-34.520;150.798;2023-05-20T02:40:26;100291.41;;;18.10;41.09
63399;BME280;49533;-34.520;150.798;2023-05-20T02:42:53;100190.75;;;17.44;41.22
63399;BME280;49533;-34.520;150.798;2023-05-20T02:45:21;100302.53;;;18.17;41.32
63399;BME280;49533;-34.520;150.798;2023-05-20T02:47:48;100296.63;;;18.15;41.10
63399;BME280;49533;-34.520;150.798;2023-05-20T02:50:15;100294.66;;;18.16;40.85
63399;BME280;49533;-34.520;150.798;2023-05-20T02:52:42;100260.00;;;17.92;40.77
63399;BME280;49533;-34.520;150.798;2023-05-20T02:55:11;100284.44;;;18.16;40.76
63399;BME280;49533;-34.520;150.798;2023-05-20T02:57:38;100232.13;;;17.90;40.78
63399;BME280;49533;-34.520;150.798;2023-05-20T03:00:07;100246.69;;;17.94;40.61
63399;BME280;49533;-34.520;150.798;2023-05-20T03:02:36;100233.53;;;17.84;40.63
63399;BME280;49533;-34.520;150.798;2023-05-20T03:05:03;100220.69;;;17.88;40.52
63399;BME280;49533;-34.520;150.798;2023-05-20T03:07:33;100257.25;;;18.11;40.79
63399;BME280;49533;-34.520;150.798;2023-05-20T03:10:01;100265.50;;;18.11;40.91
63399;BME280;49533;-34.520;150.798;2023-05-20T03:12:30;100239.19;;;17.91;40.60
63399;BME280;49533;-34.520;150.798;2023-05-20T03:14:57;100244.22;;;18.08;40.45
63399;BME280;49533;-34.520;150.798;2023-05-20T03:17:25;100254.63;;;18.18;40.59
63399;BME280;49533;-34.520;150.798;2023-05-20T03:19:52;100248.25;;;18.14;40.77
63399;BME280;49533;-34.520;150.798;2023-05-20T03:22:19;100223.75;;;18.06;40.72
63399;BME280;49533;-34.520;150.798;2023-05-20T03:24:47;100251.44;;;18.16;40.48
63399;BME280;49533;-34.520;150.798;2023-05-20T03:27:14;100197.59;;;17.73;40.54
63399;BME280;49533;-34.520;150.798;2023-05-20T03:29:41;100237.72;;;17.97;40.41
63399;BME280;49533;-34.520;150.798;2023-05-20T03:32:08;100233.97;;;18.05;39.88
63399;BME280;49533;-34.520;150.798;2023-05-20T03:34:36;100260.13;;;18.18;39.91
63399;BME280;49533;-34.520;150.798;2023-05-20T03:37:03;100257.38;;;18.18;40.03
63399;BME280;49533;-34.520;150.798;2023-05-20T03:39:31;100263.97;;;18.14;39.90
63399;BME280;49533;-34.520;150.798;2023-05-20T03:41:58;100226.53;;;17.86;39.86
63399;BME280;49533;-34.520;150.798;2023-05-20T03:44:25;100241.09;;;18.10;39.98
63399;BME280;49533;-34.520;150.798;2023-05-20T03:46:52;100228.50;;;17.86;39.79
63399;BME280;49533;-34.520;150.798;2023-05-20T03:49:20;100247.41;;;18.10;40.21
63399;BME280;49533;-34.520;150.798;2023-05-20T03:51:47;100257.72;;;18.17;40.09
63399;BME280;49533;-34.520;150.798;2023-05-20T03:54:14;100262.88;;;18.18;40.01
63399;BME280;49533;-34.520;150.798;2023-05-20T03:56:42;100251.25;;;18.06;39.85
63399;BME280;49533;-34.520;150.798;2023-05-20T03:59:12;100259.84;;;18.23;39.45
63399;BME280;49533;-34.520;150.798;2023-05-20T04:01:39;100264.16;;;18.24;39.85
63399;BME280;49533;-34.520;150.798;2023-05-20T04:04:06;100255.16;;;18.28;39.57
63399;BME280;49533;-34.520;150.798;2023-05-20T04:06:33;100261.91;;;18.30;39.66
63399;BME280;49533;-34.520;150.798;2023-05-20T04:09:01;100236.97;;;18.19;39.64
63399;BME280;49533;-34.520;150.798;2023-05-20T04:11:29;100250.84;;;18.27;39.81
63399;BME280;49533;-34.520;150.798;2023-05-20T04:13:56;100245.19;;;18.39;39.35
63399;BME280;49533;-34.520;150.798;2023-05-20T04:16:25;100237.09;;;18.27;39.70
63399;BME280;49533;-34.520;150.798;2023-05-20T04:18:52;100249.63;;;18.47;39.62
63399;BME280;49533;-34.520;150.798;2023-05-20T04:21:19;100249.31;;;18.52;39.60
63399;BME280;49533;-34.520;150.798;2023-05-20T04:23:46;100178.47;;;17.99;39.55
63399;BME280;49533;-34.520;150.798;2023-05-20T04:26:13;100182.16;;;18.07;39.83
63399;BME280;49533;-34.520;150.798;2023-05-20T04:28:40;100273.34;;;18.55;39.82
63399;BME280;49533;-34.520;150.798;2023-05-20T04:31:07;100239.81;;;18.46;39.79
63399;BME280;49533;-34.520;150.798;2023-05-20T04:33:36;100203.75;;;18.28;39.66
63399;BME280;49533;-34.520;150.798;2023-05-20T04:36:05;100200.91;;;18.24;39.56
63399;BME280;49533;-34.520;150.798;2023-05-20T04:38:33;100110.84;;;17.72;39.72
63399;BME280;49533;-34.520;150.798;2023-05-20T04:41:01;100183.00;;;18.11;39.71
63399;BME280;49533;-34.520;150.798;2023-05-20T04:43:30;100260.16;;;18.64;39.56
63399;BME280;49533;-34.520;150.798;2023-05-20T04:45:59;100260.19;;;18.68;39.23
63399;BME280;49533;-34.520;150.798;2023-05-20T04:48:26;100174.50;;;18.20;39.20
63399;BME280;49533;-34.520;150.798;2023-05-20T04:50:54;100251.16;;;18.67;39.30
63399;BME280;49533;-34.520;150.798;2023-05-20T04:53:21;100238.06;;;18.61;39.29
63399;BME280;49533;-34.520;150.798;2023-05-20T04:55:54;100262.59;;;18.69;39.42
63399;BME280;49533;-34.520;150.798;2023-05-20T04:58:22;100202.25;;;18.34;39.58
63399;BME280;49533;-34.520;150.798;2023-05-20T05:00:50;100133.16;;;17.90;39.38
63399;BME280;49533;-34.520;150.798;2023-05-20T05:03:18;100212.22;;;18.42;39.39
63399;BME280;49533;-34.520;150.798;2023-05-20T05:05:45;100258.38;;;18.76;39.19
63399;BME280;49533;-34.520;150.798;2023-05-20T05:08:12;100242.88;;;18.67;39.35
63399;BME280;49533;-34.520;150.798;2023-05-20T05:10:40;100266.63;;;18.76;39.35
63399;BME280;49533;-34.520;150.798;2023-05-20T05:13:07;100251.59;;;18.69;39.33
63399;BME280;49533;-34.520;150.798;2023-05-20T05:15:34;100221.25;;;18.43;39.46
63399;BME280;49533;-34.520;150.798;2023-05-20T05:18:01;100243.50;;;18.57;39.31
63399;BME280;49533;-34.520;150.798;2023-05-20T05:20:28;100269.03;;;18.77;39.17
63399;BME280;49533;-34.520;150.798;2023-05-20T05:22:55;100276.50;;;18.77;38.42
63399;BME280;49533;-34.520;150.798;2023-05-20T05:25:23;100227.66;;;18.51;39.04
63399;BME280;49533;-34.520;150.798;2023-05-20T05:27:50;100241.63;;;18.61;38.62
63399;BME280;49533;-34.520;150.798;2023-05-20T05:30:17;100241.94;;;18.56;38.63
63399;BME280;49533;-34.520;150.798;2023-05-20T05:32:44;100254.69;;;18.68;38.50
63399;BME280;49533;-34.520;150.798;2023-05-20T05:35:11;100190.34;;;18.27;38.73
63399;BME280;49533;-34.520;150.798;2023-05-20T05:37:38;100233.56;;;18.49;38.69
63399;BME280;49533;-34.520;150.798;2023-05-20T05:40:07;100236.75;;;18.51;38.68
63399;BME280;49533;-34.520;150.798;2023-05-20T05:42:34;100235.53;;;18.49;38.57
63399;BME280;49533;-34.520;150.798;2023-05-20T05:45:01;100282.34;;;18.75;38.49
63399;BME280;49533;-34.520;150.798;2023-05-20T05:47:29;100151.97;;;17.88;38.58
63399;BME280;49533;-34.520;150.798;2023-05-20T05:49:58;100243.69;;;18.45;38.73
63399;BME280;49533;-34.520;150.798;2023-05-20T05:52:26;100273.13;;;18.64;38.82
63399;BME280;49533;-34.520;150.798;2023-05-20T05:54:53;100285.03;;;18.72;38.72
63399;BME280;49533;-34.520;150.798;2023-05-20T05:57:20;100246.88;;;18.47;38.59
63399;BME280;49533;-34.520;150.798;2023-05-20T05:59:47;100261.59;;;18.58;38.35
63399;BME280;49533;-34.520;150.798;2023-05-20T06:02:14;100294.44;;;18.71;38.66
63399;BME280;49533;-34.520;150.798;2023-05-20T06:04:41;100294.00;;;18.68;38.92
63399;BME280;49533;-34.520;150.798;2023-05-20T06:07:09;100290.47;;;18.68;38.81
63399;BME280;49533;-34.520;150.798;2023-05-20T06:09:36;100228.28;;;18.17;38.65
63399;BME280;49533;-34.520;150.798;2023-05-20T06:12:04;100244.00;;;18.40;38.80
63399;BME280;49533;-34.520;150.798;2023-05-20T06:14:31;100254.25;;;18.43;38.70
63399;BME280;49533;-34.520;150.798;2023-05-20T06:16:59;100293.94;;;18.65;38.55
63399;BME280;49533;-34.520;150.798;2023-05-20T06:19:26;100274.44;;;18.51;38.54
63399;BME280;49533;-34.520;150.798;2023-05-20T06:21:55;100305.69;;;18.62;38.39
63399;BME280;49533;-34.520;150.798;2023-05-20T06:24:22;100286.63;;;18.50;38.48
63399;BME280;49533;-34.520;150.798;2023-05-20T06:26:49;100304.47;;;18.59;38.67
63399;BME280;49533;-34.520;150.798;2023-05-20T06:29:16;100288.75;;;18.37;38.62
63399;BME280;49533;-34.520;150.798;2023-05-20T06:31:43;100275.47;;;18.42;38.78
63399;BME280;49533;-34.520;150.798;2023-05-20T06:34:10;100245.50;;;18.14;38.69
63399;BME280;49533;-34.520;150.798;2023-05-20T06:36:37;100304.91;;;18.19;38.94
63399;BME280;49533;-34.520;150.798;2023-05-20T06:39:04;100257.09;;;18.23;38.99
63399;BME280;49533;-34.520;150.798;2023-05-20T06:41:39;100311.84;;;18.55;38.94
63399;BME280;49533;-34.520;150.798;2023-05-20T06:44:06;100278.03;;;18.32;39.22
63399;BME280;49533;-34.520;150.798;2023-05-20T06:46:34;100278.03;;;18.32;39.12
63399;BME280;49533;-34.520;150.798;2023-05-20T06:49:01;100249.88;;;18.15;39.45
63399;BME280;49533;-34.520;150.798;2023-05-20T06:51:29;100311.03;;;18.51;39.03
63399;BME280;49533;-34.520;150.798;2023-05-20T06:53:56;100233.84;;;17.98;39.28
63399;BME280;49533;-34.520;150.798;2023-05-20T06:56:23;100309.84;;;18.52;39.08
63399;BME280;49533;-34.520;150.798;2023-05-20T06:58:50;100265.19;;;18.16;39.35
63399;BME280;49533;-34.520;150.798;2023-05-20T07:01:18;100283.84;;;18.27;39.19
63399;BME280;49533;-34.520;150.798;2023-05-20T07:03:45;100278.66;;;18.21;39.43
63399;BME280;49533;-34.520;150.798;2023-05-20T07:06:12;100290.47;;;18.45;39.14
63399;BME280;49533;-34.520;150.798;2023-05-20T07:08:39;100221.25;;;17.77;39.06
63399;BME280;49533;-34.520;150.798;2023-05-20T07:11:06;100295.78;;;18.34;39.10
63399;BME280;49533;-34.520;150.798;2023-05-20T07:13:33;100250.88;;;18.07;38.75
63399;BME280;49533;-34.520;150.798;2023-05-20T07:16:01;100318.75;;;18.45;38.95
63399;BME280;49533;-34.520;150.798;2023-05-20T07:18:28;100311.31;;;18.46;39.30
63399;BME280;49533;-34.520;150.798;2023-05-20T07:20:55;100264.69;;;18.11;39.09
63399;BME280;49533;-34.520;150.798;2023-05-20T07:23:23;100308.13;;;18.44;38.92
63399;BME280;49533;-34.520;150.798;2023-05-20T07:25:52;100262.91;;;17.99;38.60
63399;BME280;49533;-34.520;150.798;2023-05-20T07:28:20;100325.38;;;18.41;38.32
63399;BME280;49533;-34.520;150.798;2023-05-20T07:30:48;100309.66;;;18.41;38.28
63399;BME280;49533;-34.520;150.798;2023-05-20T07:33:16;100299.56;;;18.26;38.11
63399;BME280;49533;-34.520;150.798;2023-05-20T07:35:44;100322.91;;;18.36;37.96
63399;BME280;49533;-34.520;150.798;2023-05-20T07:38:11;100285.31;;;18.20;38.22
63399;BME280;49533;-34.520;150.798;2023-05-20T07:40:39;100285.09;;;18.10;38.25
63399;BME280;49533;-34.520;150.798;2023-05-20T07:43:07;100317.34;;;18.32;38.43
63399;BME280;49533;-34.520;150.798;2023-05-20T07:45:35;100284.38;;;18.13;38.00
63399;BME280;49533;-34.520;150.798;2023-05-20T07:48:03;100316.06;;;18.26;37.98
63399;BME280;49533;-34.520;150.798;2023-05-20T07:50:33;100299.28;;;18.12;37.95
63399;BME280;49533;-34.520;150.798;2023-05-20T07:53:00;100275.78;;;17.95;38.14
63399;BME280;49533;-34.520;150.798;2023-05-20T07:55:27;100284.75;;;17.92;38.09
63399;BME280;49533;-34.520;150.798;2023-05-20T07:57:54;100282.44;;;17.94;38.30
63399;BME280;49533;-34.520;150.798;2023-05-20T08:00:21;100320.03;;;18.09;38.64
63399;BME280;49533;-34.520;150.798;2023-05-20T08:02:49;100349.16;;;18.10;38.33
63399;BME280;49533;-34.520;150.798;2023-05-20T08:05:16;100348.91;;;18.19;38.48
63399;BME280;49533;-34.520;150.798;2023-05-20T08:07:43;100245.53;;;17.56;38.34
63399;BME280;49533;-34.520;150.798;2023-05-20T08:10:10;100361.13;;;18.21;38.45
63399;BME280;49533;-34.520;150.798;2023-05-20T08:12:37;100301.72;;;17.78;38.50
63399;BME280;49533;-34.520;150.798;2023-05-20T08:15:05;100352.53;;;18.03;39.26
63399;BME280;49533;-34.520;150.798;2023-05-20T08:17:32;100374.00;;;18.17;38.87
63399;BME280;49533;-34.520;150.798;2023-05-20T08:20:00;100386.97;;;18.17;39.04
63399;BME280;49533;-34.520;150.798;2023-05-20T08:22:27;100358.66;;;17.97;38.77
63399;BME280;49533;-34.520;150.798;2023-05-20T08:24:54;100403.03;;;18.15;39.34
63399;BME280;49533;-34.520;150.798;2023-05-20T08:27:22;100395.59;;;18.15;39.48
63399;BME280;49533;-34.520;150.798;2023-05-20T08:29:50;100351.66;;;17.80;39.48
63399;BME280;49533;-34.520;150.798;2023-05-20T08:32:17;100329.69;;;17.64;39.71
63399;BME280;49533;-34.520;150.798;2023-05-20T08:34:44;100324.84;;;17.57;39.71
63399;BME280;49533;-34.520;150.798;2023-05-20T08:37:11;100404.13;;;18.10;39.78
63399;BME280;49533;-34.520;150.798;2023-05-20T08:39:38;100335.31;;;17.71;39.67
63399;BME280;49533;-34.520;150.798;2023-05-20T08:42:05;100324.00;;;17.73;39.55
63399;BME280;49533;-34.520;150.798;2023-05-20T08:44:33;100359.41;;;17.94;39.60
63399;BME280;49533;-34.520;150.798;2023-05-20T08:47:02;100273.16;;;17.28;39.63
63399;BME280;49533;-34.520;150.798;2023-05-20T08:49:31;100327.22;;;17.59;39.52
63399;BME280;49533;-34.520;150.798;2023-05-20T08:51:59;100370.66;;;17.89;39.61
63399;BME280;49533;-34.520;150.798;2023-05-20T08:54:42;100322.59;;;17.63;39.51
63399;BME280;49533;-34.520;150.798;2023-05-20T08:57:11;100394.56;;;17.85;39.58
63399;BME280;49533;-34.520;150.798;2023-05-20T08:59:41;100399.16;;;17.80;39.87
63399;BME280;49533;-34.520;150.798;2023-05-20T09:02:09;100402.59;;;17.77;39.83
63399;BME280;49533;-34.520;150.798;2023-05-20T09:04:37;100399.53;;;17.63;39.90
63399;BME280;49533;-34.520;150.798;2023-05-20T09:07:04;100325.63;;;17.23;39.95
63399;BME280;49533;-34.520;150.798;2023-05-20T09:09:33;100414.31;;;17.74;40.19
63399;BME280;49533;-34.520;150.798;2023-05-20T09:12:01;100330.75;;;17.24;39.83
63399;BME280;49533;-34.520;150.798;2023-05-20T09:14:29;100257.16;;;16.79;40.20
63399;BME280;49533;-34.520;150.798;2023-05-20T09:16:57;100359.53;;;17.30;40.33
63399;BME280;49533;-34.520;150.798;2023-05-20T09:19:24;100405.13;;;17.67;40.39
63399;BME280;49533;-34.520;150.798;2023-05-20T09:21:53;100416.91;;;17.67;40.45
63399;BME280;49533;-34.520;150.798;2023-05-20T09:24:22;100350.31;;;17.38;40.26
63399;BME280;49533;-34.520;150.798;2023-05-20T09:26:51;100360.75;;;17.33;40.42
63399;BME280;49533;-34.520;150.798;2023-05-20T09:29:18;100327.84;;;17.17;40.61
63399;BME280;49533;-34.520;150.798;2023-05-20T09:31:48;100392.16;;;17.67;40.40
63399;BME280;49533;-34.520;150.798;2023-05-20T09:34:16;100397.66;;;17.67;40.76
63399;BME280;49533;-34.520;150.798;2023-05-20T09:36:44;100363.09;;;17.66;40.64
63399;BME280;49533;-34.520;150.798;2023-05-20T09:39:15;100309.41;;;17.33;40.70
63399;BME280;49533;-34.520;150.798;2023-05-20T09:42:04;100344.13;;;17.61;40.64
63399;BME280;49533;-34.520;150.798;2023-05-20T09:44:32;100268.00;;;17.07;40.85
63399;BME280;49533;-34.520;150.798;2023-05-20T09:47:00;100313.28;;;17.32;40.73
63399;BME280;49533;-34.520;150.798;2023-05-20T09:49:28;100349.03;;;17.52;41.04
63399;BME280;49533;-34.520;150.798;2023-05-20T09:51:57;100341.16;;;17.50;40.89
63399;BME280;49533;-34.520;150.798;2023-05-20T09:54:27;100305.09;;;17.16;41.18
63399;BME280;49533;-34.520;150.798;2023-05-20T09:56:56;100312.09;;;17.14;41.14
63399;BME280;49533;-34.520;150.798;2023-05-20T09:59:24;100286.41;;;17.06;41.22
63399;BME280;49533;-34.520;150.798;2023-05-20T10:01:53;100303.84;;;17.14;41.06
63399;BME280;49533;-34.520;150.798;2023-05-20T10:04:22;100353.94;;;17.43;41.41
63399;BME280;49533;-34.520;150.798;2023-05-20T10:07:16;100270.31;;;16.89;41.26
63399;BME280;49533;-34.520;150.798;2023-05-20T10:10:06;100287.31;;;16.94;41.36
63399;BME280;49533;-34.520;150.798;2023-05-20T10:12:52;100368.81;;;17.42;41.42
63399;BME280;49533;-34.520;150.798;2023-05-20T10:15:41;100295.28;;;17.00;41.30
63399;BME280;49533;-34.520;150.798;2023-05-20T10:21:01;100356.50;;;17.35;41.27
63399;BME280;49533;-34.520;150.798;2023-05-20T10:23:29;100216.16;;;16.38;41.48
63399;BME280;49533;-34.520;150.798;2023-05-20T10:25:57;100355.41;;;17.21;41.52
63399;BME280;49533;-34.520;150.798;2023-05-20T10:28:30;100356.78;;;17.30;41.45
63399;BME280;49533;-34.520;150.798;2023-05-20T10:30:59;100350.94;;;17.32;41.59
63399;BME280;49533;-34.520;150.798;2023-05-20T10:33:26;100301.19;;;17.02;41.56
63399;BME280;49533;-34.520;150.798;2023-05-20T10:35:58;100187.16;;;16.37;41.50
63399;BME280;49533;-34.520;150.798;2023-05-20T10:38:25;100305.00;;;17.13;41.82
63399;BME280;49533;-34.520;150.798;2023-05-20T10:40:52;100329.59;;;17.25;41.72
63399;BME280;49533;-34.520;150.798;2023-05-20T10:43:27;100345.19;;;17.21;42.01
63399;BME280;49533;-34.520;150.798;2023-05-20T10:45:55;100288.41;;;16.90;42.06
63399;BME280;49533;-34.520;150.798;2023-05-20T10:48:30;100345.09;;;17.17;42.29
63399;BME280;49533;-34.520;150.798;2023-05-20T10:50:59;100358.75;;;17.14;42.30
63399;BME280;49533;-34.520;150.798;2023-05-20T10:53:38;100367.69;;;17.11;42.37
63399;BME280;49533;-34.520;150.798;2023-05-20T10:56:17;100374.69;;;17.08;42.32
63399;BME280;49533;-34.520;150.798;2023-05-20T10:58:45;100373.28;;;16.99;42.83
63399;BME280;49533;-34.520;150.798;2023-05-20T11:01:12;100346.19;;;16.81;42.57
63399;BME280;49533;-34.520;150.798;2023-05-20T11:03:40;100380.00;;;17.01;42.68
63399;BME280;49533;-34.520;150.798;2023-05-20T11:06:12;100402.69;;;16.98;42.84
63399;BME280;49533;-34.520;150.798;2023-05-20T11:08:39;100320.19;;;16.47;42.98
63399;BME280;49533;-34.520;150.798;2023-05-20T11:11:07;100358.88;;;16.73;43.01
63399;BME280;49533;-34.520;150.798;2023-05-20T11:13:34;100386.09;;;16.94;42.83
63399;BME280;49533;-34.520;150.798;2023-05-20T11:16:01;100393.91;;;16.92;42.80
63399;BME280;49533;-34.520;150.798;2023-05-20T11:18:29;100390.28;;;16.88;42.98
63399;BME280;49533;-34.520;150.798;2023-05-20T11:20:58;100378.84;;;16.86;42.83
63399;BME280;49533;-34.520;150.798;2023-05-20T11:23:27;100395.75;;;16.88;42.69
63399;BME280;49533;-34.520;150.798;2023-05-20T11:25:55;100379.28;;;16.88;42.59
63399;BME280;49533;-34.520;150.798;2023-05-20T11:28:23;100380.88;;;16.89;42.47
63399;BME280;49533;-34.520;150.798;2023-05-20T11:30:51;100370.63;;;16.86;42.44
63399;BME280;49533;-34.520;150.798;2023-05-20T11:33:19;100370.16;;;16.84;42.51
63399;BME280;49533;-34.520;150.798;2023-05-20T11:35:48;100307.09;;;16.40;42.42
63399;BME280;49533;-34.520;150.798;2023-05-20T11:38:16;100365.38;;;16.81;42.73
63399;BME280;49533;-34.520;150.798;2023-05-20T11:40:45;100211.22;;;15.84;42.89
63399;BME280;49533;-34.520;150.798;2023-05-20T11:43:13;100341.38;;;16.62;42.71
63399;BME280;49533;-34.520;150.798;2023-05-20T11:45:43;100363.59;;;16.73;42.95
63399;BME280;49533;-34.520;150.798;2023-05-20T11:48:11;100367.38;;;16.68;42.92
63399;BME280;49533;-34.520;150.798;2023-05-20T11:50:42;100361.81;;;16.65;43.04
63399;BME280;49533;-34.520;150.798;2023-05-20T11:53:15;100350.13;;;16.68;43.04
63399;BME280;49533;-34.520;150.798;2023-05-20T11:55:49;100333.75;;;16.56;43.15
63399;BME280;49533;-34.520;150.798;2023-05-20T11:58:20;100350.84;;;16.65;43.35
63399;BME280;49533;-34.520;150.798;2023-05-20T12:00:48;100354.72;;;16.64;43.13
63399;BME280;49533;-34.520;150.798;2023-05-20T12:03:15;100166.19;;;15.41;43.59
63399;BME280;49533;-34.520;150.798;2023-05-20T12:05:42;100272.03;;;16.18;43.34
63399;BME280;49533;-34.520;150.798;2023-05-20T12:08:10;100324.63;;;16.51;42.97
63399;BME280;49533;-34.520;150.798;2023-05-20T12:10:37;100309.13;;;16.43;43.04
63399;BME280;49533;-34.520;150.798;2023-05-20T12:13:04;100284.34;;;16.24;43.15
63399;BME280;49533;-34.520;150.798;2023-05-20T12:15:35;100349.47;;;16.59;43.03
63399;BME280;49533;-34.520;150.798;2023-05-20T12:18:02;100336.28;;;16.48;43.15
63399;BME280;49533;-34.520;150.798;2023-05-20T12:20:29;100308.25;;;16.39;43.28
63399;BME280;49533;-34.520;150.798;2023-05-20T12:22:59;100322.44;;;16.57;43.31
63399;BME280;49533;-34.520;150.798;2023-05-20T12:25:27;100314.34;;;16.48;43.28
63399;BME280;49533;-34.520;150.798;2023-05-20T12:27:55;100308.25;;;16.39;43.43
63399;BME280;49533;-34.520;150.798;2023-05-20T12:30:23;100299.13;;;16.35;43.38